Terminal Aerodrome Forecast
Issued by NWS

Home | Current Version | Previous Version | Text Only | Print | Product List | Glossary On
Versions: 1 2 3 4 5 6 7 8 9 10 11 12 13 14 15 16 17
209
FTUS43 KAPX 070527
TAFPLN
TAF
KPLN 070527Z 0706/0806 21006KT P6SM OVC022
     FM070800 19005KT P6SM SCT022 OVC100 WS020/21025KT
     FM071000 19006KT P6SM OVC060 WS020/21030KT
     FM071600 17009KT 4SM -SN BR OVC015
     FM080000 17004KT 5SM BR OVC012=

USA.gov is the U.S. government's official web portal to all federal, state and local government web resources and services.